Time;durP1;ratioP1;P1;durP2;ratioP2;P2;SDS_P1;SDS_P2;PMS_P1;PMS_P2;Temp;Humidity;BMP_temperature;BMP_pressure;BME280_temperature;BME280_humidity;BME280_pressure;Samples;Min_cycle;Max_cycle;Signal;HPM_P1;HPM_P2
2022/03/09 00:02:25;;;;;;;;;63.80;49.00;;;;;8.61;40.05;99389.25;6243494;27;98552;-64
2022/03/09 00:05:29;;;;;;;;;62.40;48.40;;;;;8.68;39.92;99387.47;6243715;27;96767;-65
2022/03/09 00:08:32;;;;;;;;;64.50;49.00;;;;;8.56;40.05;99394.41;6243184;27;98682;-64
2022/03/09 00:11:38;;;;;;;;;67.60;50.00;;;;;8.62;39.97;99400.84;6262422;27;96994;-64
2022/03/09 00:14:44;;;;;;;;;66.50;50.00;;;;;8.61;39.88;99396.50;6262046;27;97390;-64
2022/03/09 00:17:47;;;;;;;;;67.50;50.50;;;;;8.60;40.01;99398.34;6261627;27;96305;-63
2022/03/09 00:20:50;;;;;;;;;66.00;49.00;;;;;8.59;39.84;99398.56;6243494;27;96874;-64
2022/03/09 00:23:53;;;;;;;;;65.60;49.60;;;;;8.55;39.83;99395.41;6261383;27;96815;-62
2022/03/09 00:26:57;;;;;;;;;66.00;50.00;;;;;8.54;39.94;99392.94;6261375;27;96807;-63
2022/03/09 00:30:02;;;;;;;;;62.80;47.40;;;;;8.55;39.95;99391.94;6246365;27;99615;-64
2022/03/09 00:33:06;;;;;;;;;66.20;50.00;;;;;8.52;39.67;99378.88;6242846;27;97923;-65
2022/03/09 00:36:09;;;;;;;;;63.00;49.00;;;;;8.50;40.00;99394.38;6261665;27;96865;-63
2022/03/09 00:39:13;;;;;;;;;63.67;49.00;;;;;8.57;40.13;99396.06;6261532;27;97524;-64
2022/03/09 00:42:17;;;;;;;;;62.00;48.00;;;;;8.55;39.79;99383.88;6260113;27;96985;-65
2022/03/09 00:45:21;;;;;;;;;63.00;49.60;;;;;8.58;39.83;99386.97;6242479;27;98971;-64
2022/03/09 00:48:25;;;;;;;;;64.00;49.00;;;;;8.58;39.72;99388.84;6251220;27;97603;-63
2022/03/09 00:51:28;;;;;;;;;64.00;49.00;;;;;8.53;39.96;99386.75;6261854;27;96816;-64
2022/03/09 00:54:32;;;;;;;;;65.75;50.00;;;;;8.49;39.93;99385.47;6261493;27;97429;-63
2022/03/09 00:57:35;;;;;;;;;61.00;48.20;;;;;8.48;40.13;99382.97;6264727;27;96832;-64
2022/03/09 01:00:41;;;;;;;;;67.50;50.00;;;;;8.44;40.15;99377.16;6265496;27;97460;-66
2022/03/09 01:03:45;;;;;;;;;66.00;50.00;;;;;8.51;39.98;99367.28;6266431;27;97497;-64
2022/03/09 01:06:48;;;;;;;;;64.00;49.00;;;;;8.33;40.41;99345.47;6231966;27;98391;-64
2022/03/09 01:09:51;;;;;;;;;64.50;49.00;;;;;8.41;40.19;99353.38;6264857;27;97242;-64
2022/03/09 01:12:54;;;;;;;;;60.00;47.00;;;;;8.45;40.12;99362.72;6247607;27;96583;-64
2022/03/09 01:15:59;;;;;;;;;64.00;48.00;;;;;8.40;40.30;99367.84;6246911;27;96628;-63
2022/03/09 01:19:03;;;;;;;;;62.00;47.25;;;;;8.41;40.27;99371.34;6265695;27;97542;-65
2022/03/09 01:22:06;;;;;;;;;63.60;48.00;;;;;8.45;40.25;99365.41;6265375;27;98167;-64
2022/03/09 01:25:11;;;;;;;;;63.60;48.00;;;;;8.46;40.22;99369.72;6264227;27;96903;-65
2022/03/09 01:28:14;;;;;;;;;64.20;48.60;;;;;8.40;40.36;99356.28;6247229;27;97171;-64
2022/03/09 01:31:18;;;;;;;;;62.00;48.75;;;;;8.41;40.46;99360.59;6263213;27;97133;-65
2022/03/09 01:34:24;;;;;;;;;65.50;48.00;;;;;8.38;40.38;99364.50;6245264;27;96816;-65
2022/03/09 01:37:28;;;;;;;;;62.25;48.00;;;;;8.36;40.42;99353.13;6262320;27;97422;-64
2022/03/09 01:40:31;;;;;;;;;61.80;46.80;;;;;8.31;40.81;99346.69;6264178;27;97101;-64
2022/03/09 01:43:35;;;;;;;;;65.00;49.20;;;;;8.31;40.68;99352.88;6265191;27;97434;-64
2022/03/09 01:46:41;;;;;;;;;65.00;49.00;;;;;8.25;40.33;99350.97;6264942;27;96948;-66
2022/03/09 01:49:44;;;;;;;;;62.00;49.40;;;;;8.12;41.11;99340.94;6246717;27;97293;-63
2022/03/09 01:52:48;;;;;;;;;62.75;48.00;;;;;8.18;41.15;99344.69;6246883;27;96594;-64
2022/03/09 01:55:51;;;;;;;;;63.75;50.00;;;;;8.16;40.90;99350.25;6245942;27;97055;-63
2022/03/09 01:58:57;;;;;;;;;63.00;48.50;;;;;8.18;41.14;99342.00;6246312;27;98271;-63
2022/03/09 02:02:03;;;;;;;;;66.25;50.00;;;;;8.17;41.03;99337.66;6264423;27;96242;-64
2022/03/09 02:05:08;;;;;;;;;67.20;51.00;;;;;8.18;41.13;99331.28;6264473;27;97479;-63
2022/03/09 02:11:37;;;;;;;;;67.00;50.00;;;;;8.17;41.11;99329.59;6264543;27;96473;-65
2022/03/09 02:14:42;;;;;;;;;68.60;52.00;;;;;7.97;41.67;99329.44;6264162;27;96842;-65
2022/03/09 02:17:46;;;;;;;;;67.25;51.50;;;;;7.91;41.78;99334.78;6244807;27;99414;-64
2022/03/09 02:20:53;;;;;;;;;68.00;51.00;;;;;7.81;42.06;99324.38;6245778;27;96701;-64
2022/03/09 02:23:57;;;;;;;;;71.00;52.40;;;;;7.79;42.01;99329.94;6264345;27;96457;-65
2022/03/09 02:27:01;;;;;;;;;69.75;51.00;;;;;7.76;42.29;99322.28;6263619;27;97452;-64
2022/03/09 02:30:06;;;;;;;;;67.20;50.60;;;;;7.76;42.26;99327.66;6244523;27;99036;-63
2022/03/09 02:33:10;;;;;;;;;69.25;52.75;;;;;7.79;42.24;99316.50;6263841;27;96889;-63
2022/03/09 02:36:13;;;;;;;;;68.00;51.00;;;;;7.77;42.43;99315.06;6263125;27;96673;-64
2022/03/09 02:39:17;;;;;;;;;70.20;51.80;;;;;7.83;42.08;99317.78;6263900;27;96802;-63
2022/03/09 02:42:21;;;;;;;;;71.20;52.20;;;;;7.76;42.49;99316.91;6263603;27;97069;-65
2022/03/09 02:45:24;;;;;;;;;65.00;50.00;;;;;7.82;42.14;99321.47;6263126;27;96662;-66
2022/03/09 02:48:28;;;;;;;;;67.60;51.00;;;;;7.75;42.45;99317.09;6262621;27;97251;-64
2022/03/09 02:51:31;;;;;;;;;70.00;53.60;;;;;7.76;42.33;99319.59;6243359;27;99597;-64
2022/03/09 02:54:36;;;;;;;;;68.80;52.00;;;;;7.81;42.39;99327.91;6263149;27;97423;-63
2022/03/09 02:57:40;;;;;;;;;67.50;52.00;;;;;7.79;42.50;99326.41;6228489;27;100099;-64
2022/03/09 03:00:43;;;;;;;;;67.20;51.60;;;;;7.72;42.61;99325.53;6262664;27;97291;-63
2022/03/09 03:03:47;;;;;;;;;68.20;51.60;;;;;7.79;42.37;99326.41;6262274;27;97358;-65
2022/03/09 03:06:51;;;;;;;;;68.50;52.00;;;;;7.76;42.67;99329.50;6242613;27;97765;-64
2022/03/09 03:09:56;;;;;;;;;71.40;52.00;;;;;7.70;42.61;99333.78;6242165;27;99402;-64
2022/03/09 03:12:59;;;;;;;;;69.00;51.00;;;;;7.69;42.58;99332.09;6260557;27;98223;-64
2022/03/09 03:16:03;;;;;;;;;67.00;52.00;;;;;7.62;42.98;99333.91;6234333;27;97502;-65
2022/03/09 03:19:07;;;;;;;;;68.40;52.00;;;;;7.66;42.93;99331.66;6236140;28;97470;-65
2022/03/09 03:22:12;;;;;;;;;69.80;52.80;;;;;7.70;42.91;99324.88;6237340;28;97025;-65
2022/03/09 03:25:17;;;;;;;;;71.80;52.00;;;;;7.66;43.12;99327.13;6227500;27;97126;-64
2022/03/09 03:28:24;;;;;;;;;67.00;51.00;;;;;7.72;42.98;99329.03;6244490;27;96883;-64
2022/03/09 03:31:29;;;;;;;;;67.20;51.20;;;;;7.77;43.03;99333.84;6243662;27;98323;-64
2022/03/09 03:34:32;;;;;;;;;67.80;53.00;;;;;7.77;42.96;99329.28;6262731;27;96427;-64
2022/03/09 03:37:36;;;;;;;;;68.60;52.40;;;;;7.77;43.34;99315.06;6262803;27;97126;-64
2022/03/09 03:40:41;;;;;;;;;70.00;52.00;;;;;7.81;43.13;99327.06;6262687;27;97504;-65
2022/03/09 03:43:44;;;;;;;;;68.00;52.00;;;;;7.83;43.17;99328.50;6244135;27;97445;-65
2022/03/09 03:46:47;;;;;;;;;69.00;53.00;;;;;7.76;43.46;99316.91;6262366;27;97242;-65
2022/03/09 03:49:50;;;;;;;;;72.00;52.00;;;;;7.81;43.22;99329.75;6262417;27;96336;-65
2022/03/09 03:52:54;;;;;;;;;66.75;50.75;;;;;7.82;43.15;99334.91;6262092;27;96848;-64
2022/03/09 03:55:59;;;;;;;;;70.00;52.25;;;;;7.73;43.60;99337.91;6227018;27;97237;-64
2022/03/09 03:59:03;;;;;;;;;67.25;52.00;;;;;7.85;43.37;99339.06;6243344;27;98179;-65
2022/03/09 04:02:06;;;;;;;;;69.40;51.00;;;;;7.77;43.47;99340.00;6260697;27;98196;-65
2022/03/09 04:05:10;;;;;;;;;69.40;52.20;;;;;7.75;43.56;99344.75;6261885;27;96396;-64
2022/03/09 04:08:16;;;;;;;;;70.25;52.25;;;;;7.74;43.27;99339.56;6261971;27;96390;-65
2022/03/09 04:11:20;;;;;;;;;71.00;52.20;;;;;7.67;43.46;99347.56;6262050;27;97445;-64
2022/03/09 04:14:24;;;;;;;;;69.20;52.60;;;;;7.64;43.57;99339.06;6261835;27;98136;-64
2022/03/09 04:17:27;;;;;;;;;70.00;51.60;;;;;7.70;43.56;99349.03;6243809;27;97049;-64
2022/03/09 04:20:30;;;;;;;;;69.50;52.00;;;;;7.71;43.66;99345.34;6261736;27;98036;-63
2022/03/09 04:23:33;;;;;;;;;68.00;52.00;;;;;7.71;43.58;99329.25;6243562;27;96985;-63
2022/03/09 04:26:42;;;;;;;;;68.80;51.00;;;;;7.75;43.57;99338.56;6261710;27;96618;-66
2022/03/09 04:29:45;;;;;;;;;68.00;53.00;;;;;7.73;43.59;99336.06;6242919;27;96984;-65
2022/03/09 04:32:51;;;;;;;;;65.00;50.60;;;;;7.78;43.67;99333.63;6261041;27;96967;-64
2022/03/09 04:35:55;;;;;;;;;72.00;53.00;;;;;7.73;43.62;99337.91;6243513;27;97288;-64
2022/03/09 04:38:58;;;;;;;;;71.80;54.00;;;;;7.74;44.03;99348.47;6261387;27;97160;-65
2022/03/09 04:42:04;;;;;;;;;70.40;54.00;;;;;7.81;43.95;99341.31;6261568;27;97369;-65
2022/03/09 04:45:08;;;;;;;;;70.50;52.00;;;;;7.86;43.79;99342.59;6260847;27;96793;-66
2022/03/09 04:48:11;;;;;;;;;71.20;52.60;;;;;7.88;43.73;99338.66;6242589;27;97017;-65
2022/03/09 04:51:14;;;;;;;;;70.00;53.00;;;;;7.82;43.83;99347.50;6242940;27;98463;-65
2022/03/09 04:54:18;;;;;;;;;71.50;54.25;;;;;7.82;43.92;99342.94;6261193;27;96644;-64
2022/03/09 04:57:22;;;;;;;;;68.00;53.00;;;;;7.86;43.82;99337.22;6261383;27;96420;-64
2022/03/09 05:00:26;;;;;;;;;69.50;53.00;;;;;7.78;44.12;99338.16;6260027;27;97544;-65
2022/03/09 05:03:30;;;;;;;;;70.00;53.00;;;;;7.89;43.81;99334.13;6241196;27;97031;-64
2022/03/09 05:06:37;;;;;;;;;67.60;52.00;;;;;7.89;43.85;99342.19;6246855;27;97854;-65
2022/03/09 05:09:40;;;;;;;;;71.20;52.00;;;;;7.83;43.89;99339.25;6238941;27;97422;-65
2022/03/09 05:12:45;;;;;;;;;70.50;53.00;;;;;7.72;44.07;99337.06;6242178;27;97517;-65
2022/03/09 05:15:48;;;;;;;;;67.20;50.00;;;;;7.72;44.37;99347.81;6222412;27;98042;-65
2022/03/09 05:18:51;;;;;;;;;67.50;51.25;;;;;7.78;43.98;99346.22;6258714;27;96595;-64
2022/03/09 05:21:54;;;;;;;;;68.50;51.75;;;;;7.72;44.46;99355.06;6259166;27;96792;-65
2022/03/09 05:25:14;;;;;;;;;67.80;51.40;;;;;7.61;44.65;99350.19;6258418;27;96571;-64
2022/03/09 05:28:19;;;;;;;;;70.25;51.00;;;;;7.59;44.78;99353.06;6259760;27;97425;-66
2022/03/09 05:31:22;;;;;;;;;66.75;50.50;;;;;7.64;44.72;99357.84;6259083;27;97064;-65
2022/03/09 05:34:25;;;;;;;;;67.50;51.50;;;;;7.67;44.76;99360.16;6233117;27;97216;-65
2022/03/09 05:37:29;;;;;;;;;69.40;51.40;;;;;7.60;44.98;99353.91;6249466;27;97649;-64
2022/03/09 05:40:33;;;;;;;;;67.00;51.00;;;;;7.67;44.90;99360.16;6224478;27;96749;-64
2022/03/09 05:43:37;;;;;;;;;67.00;52.20;;;;;7.65;45.11;99370.25;6243396;27;97466;-65
2022/03/09 05:46:41;;;;;;;;;66.40;50.00;;;;;7.66;45.12;99370.06;6268548;27;97188;-64
2022/03/09 05:49:45;;;;;;;;;64.00;49.80;;;;;7.73;44.90;99381.69;6249470;27;97870;-63
2022/03/09 05:52:48;;;;;;;;;67.00;51.00;;;;;7.76;45.00;99386.69;6249248;27;97305;-64
2022/03/09 05:55:51;;;;;;;;;66.20;51.00;;;;;7.79;45.14;99391.66;6260144;27;96903;-64
2022/03/09 05:58:56;;;;;;;;;67.75;51.75;;;;;7.79;45.38;99388.97;6264044;27;97441;-64
2022/03/09 06:01:59;;;;;;;;;67.00;51.00;;;;;7.72;45.78;99385.38;6245304;27;98475;-65
2022/03/09 06:05:03;;;;;;;;;69.60;52.00;;;;;7.66;45.77;99379.97;6261851;27;97382;-65
2022/03/09 06:08:06;;;;;;;;;67.75;51.00;;;;;7.60;46.13;99388.78;6272955;27;97553;-64
2022/03/09 06:11:10;;;;;;;;;69.25;52.00;;;;;7.74;45.79;99383.34;6262518;27;96652;-64
2022/03/09 06:14:14;;;;;;;;;67.00;51.00;;;;;7.75;46.09;99384.19;6260184;27;97416;-64
2022/03/09 06:17:18;;;;;;;;;67.00;51.00;;;;;7.62;46.14;99384.91;6261845;27;97074;-64
2022/03/09 06:20:25;;;;;;;;;67.00;49.75;;;;;7.71;46.15;99385.59;6263320;27;96906;-63
2022/03/09 06:23:28;;;;;;;;;65.80;49.20;;;;;7.71;46.38;99393.66;6246781;27;98388;-63
2022/03/09 06:26:32;;;;;;;;;65.75;51.00;;;;;7.69;46.39;99396.50;6262851;27;96856;-63
2022/03/09 06:29:36;;;;;;;;;68.00;52.00;;;;;7.79;46.23;99391.66;6262386;27;96757;-63
2022/03/09 06:32:41;;;;;;;;;67.00;50.80;;;;;7.66;46.55;99393.38;6243442;27;97733;-63
2022/03/09 06:35:44;;;;;;;;;63.40;50.00;;;;;7.73;46.29;99389.75;6260610;27;97451;-64
2022/03/09 06:38:48;;;;;;;;;67.00;51.00;;;;;7.70;46.41;99390.13;6260462;27;97339;-63
2022/03/09 06:41:51;;;;;;;;;67.00;51.00;;;;;7.70;46.53;99397.34;6243816;27;96904;-63
2022/03/09 06:44:57;;;;;;;;;65.00;49.20;;;;;7.74;46.52;99394.09;6262177;27;97293;-64
2022/03/09 06:48:00;;;;;;;;;66.60;50.00;;;;;7.72;46.34;99398.81;6263183;27;96533;-64
2022/03/09 06:51:04;;;;;;;;;65.00;50.80;;;;;7.71;46.39;99399.84;6262920;27;98144;-64
2022/03/09 06:54:13;;;;;;;;;64.60;50.60;;;;;7.72;46.40;99401.50;6263483;27;97116;-62
2022/03/09 06:57:16;;;;;;;;;63.00;50.00;;;;;7.76;46.83;99401.97;6262781;27;97432;-63
2022/03/09 07:00:21;;;;;;;;;66.60;50.00;;;;;7.83;46.52;99410.91;6263229;27;97473;-63
2022/03/09 07:03:25;;;;;;;;;64.00;50.00;;;;;7.86;46.54;99407.00;6263210;27;97057;-62
2022/03/09 07:06:28;;;;;;;;;66.00;49.75;;;;;7.87;46.81;99409.47;6263316;27;97022;-63
2022/03/09 07:09:31;;;;;;;;;63.60;48.40;;;;;7.96;46.75;99402.16;6246247;27;96679;-63
2022/03/09 07:12:35;;;;;;;;;66.00;50.00;;;;;8.01;46.59;99408.63;6247715;27;97196;-64
2022/03/09 07:15:39;;;;;;;;;68.20;50.00;;;;;7.88;46.96;99399.56;6283286;27;97488;-63
2022/03/09 07:18:43;;;;;;;;;65.40;50.00;;;;;7.91;46.84;99400.06;6242130;27;96655;-64
2022/03/09 07:21:46;;;;;;;;;62.00;48.50;;;;;7.87;47.10;99397.94;6263145;27;97307;-63
2022/03/09 07:24:49;;;;;;;;;62.80;49.40;;;;;7.65;47.50;99387.19;6262049;27;96860;-63
2022/03/09 07:27:53;;;;;;;;;66.40;48.20;;;;;7.91;46.83;99396.53;6266203;27;96680;-62
2022/03/09 07:30:58;;;;;;;;;63.00;48.00;;;;;7.89;46.93;99393.19;6262610;27;96358;-64
2022/03/09 07:34:01;;;;;;;;;62.80;48.80;;;;;7.93;46.69;99392.63;6243621;27;97910;-62
2022/03/09 07:37:05;;;;;;;;;67.00;50.00;;;;;8.04;46.64;99394.78;6262230;27;97517;-63
2022/03/09 07:40:09;;;;;;;;;62.00;48.00;;;;;8.02;46.79;99396.00;6226973;27;99244;-64
2022/03/09 07:43:12;;;;;;;;;64.60;49.00;;;;;8.12;46.38;99396.50;6261857;27;96693;-62
2022/03/09 07:46:22;;;;;;;;;64.75;48.00;;;;;8.05;46.30;99388.41;6243938;27;98016;-62
2022/03/09 07:49:26;;;;;;;;;63.00;48.20;;;;;8.17;46.09;99394.06;6262708;27;97667;-61
2022/03/09 07:52:29;;;;;;;;;61.33;47.33;;;;;8.16;45.88;99387.06;6261214;27;97472;-62
2022/03/09 07:55:32;;;;;;;;;62.40;48.80;;;;;8.18;46.00;99379.63;6262772;27;96782;-62
2022/03/09 07:58:35;;;;;;;;;62.00;47.75;;;;;8.22;45.96;99375.50;6261099;27;97597;-62
2022/03/09 08:01:41;;;;;;;;;62.60;48.40;;;;;8.32;45.77;99367.13;6242039;27;96877;-62
2022/03/09 08:04:44;;;;;;;;;61.00;48.00;;;;;8.41;45.69;99374.03;6241342;27;96681;-62
2022/03/09 08:07:48;;;;;;;;;67.00;48.80;;;;;8.42;45.46;99375.69;6260472;27;97097;-62
2022/03/09 08:10:52;;;;;;;;;62.20;48.00;;;;;8.48;45.34;99372.22;6260804;27;97399;-62
2022/03/09 08:13:56;;;;;;;;;65.00;49.50;;;;;8.61;45.34;99375.00;6242725;27;97697;-63
2022/03/09 08:17:01;;;;;;;;;62.50;47.50;;;;;8.69;45.01;99370.31;6225496;27;96937;-64
2022/03/09 08:20:05;;;;;;;;;62.00;47.75;;;;;8.81;44.59;99372.41;6241943;27;96787;-62
2022/03/09 08:23:09;;;;;;;;;60.50;46.25;;;;;8.69;44.51;99370.31;6260865;27;97442;-64
2022/03/09 08:26:12;;;;;;;;;61.20;47.60;;;;;8.92;44.73;99378.09;6260772;27;97435;-63
2022/03/09 08:29:15;;;;;;;;;61.20;47.20;;;;;9.11;44.18;99379.19;6267255;27;97065;-62
2022/03/09 08:32:21;;;;;;;;;60.00;46.20;;;;;9.27;44.07;99384.25;6262814;27;97254;-63
2022/03/09 08:35:24;;;;;;;;;58.00;46.00;;;;;9.36;43.58;99366.88;6263530;27;97052;-62
2022/03/09 08:38:28;;;;;;;;;63.00;47.40;;;;;9.42;43.42;99354.50;6265030;27;97643;-64
2022/03/09 08:41:31;;;;;;;;;65.80;48.00;;;;;9.43;43.44;99364.22;6255567;27;97429;-63
2022/03/09 08:44:34;;;;;;;;;60.00;47.60;;;;;9.44;43.36;99358.63;6261129;27;97384;-62
2022/03/09 08:47:40;;;;;;;;;63.25;48.25;;;;;9.53;43.24;99346.63;6228307;27;99584;-63
2022/03/09 08:50:43;;;;;;;;;60.50;47.75;;;;;9.69;43.21;99356.19;6261002;27;97530;-63
2022/03/09 08:53:47;;;;;;;;;64.20;48.20;;;;;9.77;42.90;99347.94;6250591;27;99385;-63
2022/03/09 08:56:50;;;;;;;;;62.00;47.00;;;;;9.77;42.54;99347.09;6267681;27;96710;-66
2022/03/09 08:59:53;;;;;;;;;64.75;48.00;;;;;9.71;42.51;99345.22;6225331;27;99667;-63
2022/03/09 09:03:00;;;;;;;;;61.00;47.00;;;;;9.65;42.22;99344.19;6260808;27;97010;-63
2022/03/09 09:06:05;;;;;;;;;64.00;48.40;;;;;9.46;42.75;99335.03;6240848;27;98061;-63
2022/03/09 09:09:08;;;;;;;;;62.00;46.00;;;;;9.49;42.84;99340.00;6259572;27;97034;-63
2022/03/09 09:12:12;;;;;;;;;63.00;47.00;;;;;9.50;42.95;99341.66;6260836;27;98038;-62
2022/03/09 09:15:15;;;;;;;;;62.00;48.00;;;;;9.60;42.63;99348.50;6259858;27;96659;-63
2022/03/09 09:18:20;;;;;;;;;61.00;46.80;;;;;9.57;42.75;99350.59;6263089;27;96457;-64
2022/03/09 09:21:27;;;;;;;;;61.80;47.20;;;;;9.66;42.74;99337.78;6264777;27;97342;-63
2022/03/09 09:24:30;;;;;;;;;61.60;48.00;;;;;9.79;42.35;99342.31;6263864;27;97955;-64
2022/03/09 09:27:34;;;;;;;;;62.00;47.00;;;;;9.76;42.03;99327.44;6264470;27;97437;-64
2022/03/09 09:30:49;;;;;;;;;61.60;46.20;;;;;9.69;42.20;99326.56;6264858;27;97374;-66
2022/03/09 09:33:54;;;;;;;;;61.00;48.00;;;;;9.76;41.97;99322.03;6264806;27;97072;-64
2022/03/09 09:36:59;;;;;;;;;62.00;47.00;;;;;9.76;42.06;99331.97;6247102;27;98652;-63
2022/03/09 09:40:04;;;;;;;;;57.75;46.00;;;;;9.90;42.02;99330.97;6230115;27;98384;-64
2022/03/09 09:43:10;;;;;;;;;61.00;48.00;;;;;10.10;41.98;99322.88;6264991;27;98148;-63
2022/03/09 09:46:15;;;;;;;;;59.40;45.00;;;;;10.56;41.43;99314.75;6264740;27;97046;-61
2022/03/09 09:49:23;;;;;;;;;63.60;48.00;;;;;10.78;40.62;99314.28;6263244;27;97519;-62
2022/03/09 09:52:28;;;;;;;;;61.60;46.00;;;;;10.77;40.11;99318.00;6264113;27;96958;-62
2022/03/09 09:55:32;;;;;;;;;60.60;46.60;;;;;10.94;39.92;99310.28;6263717;27;97195;-64
2022/03/09 09:58:36;;;;;;;;;60.00;46.60;;;;;11.11;39.52;99313.31;6245951;27;98498;-63
2022/03/09 10:01:41;;;;;;;;;62.00;47.00;;;;;11.41;39.05;99314.41;6264441;27;96517;-62
2022/03/09 10:04:47;;;;;;;;;60.60;47.40;;;;;11.68;38.83;99317.75;6246594;27;97490;-63
2022/03/09 10:08:10;;;;;;;;;62.00;48.00;;;;;12.14;38.09;99317.44;6245946;27;97560;-65
2022/03/09 10:11:14;;;;;;;;;62.00;48.00;;;;;12.63;37.04;99305.72;6265348;27;97413;-64
2022/03/09 10:14:18;;;;;;;;;64.00;50.00;;;;;13.44;35.64;99318.91;6267534;27;97488;-63
2022/03/09 10:17:23;;;;;;;;;63.40;47.40;;;;;13.98;34.18;99309.75;6245697;27;97151;-63
2022/03/09 10:20:31;;;;;;;;;61.20;47.00;;;;;14.88;33.73;99309.41;6287055;27;96866;-63
2022/03/09 10:23:51;;;;;;;;;62.00;48.00;;;;;15.99;31.77;99297.97;6247499;27;96535;-63
2022/03/09 10:26:55;;;;;;;;;61.60;48.00;;;;;16.58;30.40;99310.09;6254973;27;98437;-66
2022/03/09 10:29:59;;;;;;;;;59.40;46.40;;;;;16.29;29.93;99311.25;6240773;27;97989;-62
2022/03/09 10:33:04;;;;;;;;;61.40;46.00;;;;;16.19;30.41;99309.19;6266221;27;97587;-62
2022/03/09 10:36:16;;;;;;;;;61.20;47.00;;;;;16.11;30.47;99312.31;6263810;27;96720;-64
2022/03/09 10:39:20;;;;;;;;;61.60;47.20;;;;;16.13;30.04;99303.91;6244775;27;96950;-63
2022/03/09 10:42:24;;;;;;;;;61.00;47.00;;;;;16.68;29.23;99298.50;6244513;27;98682;-63
2022/03/09 10:45:28;;;;;;;;;59.50;46.00;;;;;17.36;28.72;99294.44;6251007;27;96932;-67
2022/03/09 10:48:54;;;;;;;;;61.60;46.60;;;;;17.72;27.86;99297.34;6264670;27;96600;-63
2022/03/09 10:51:58;;;;;;;;;61.80;47.40;;;;;17.95;28.08;99304.34;6263755;27;96591;-64
2022/03/09 10:55:30;;;;;;;;;60.00;46.00;;;;;18.37;27.05;99301.72;6267403;27;96998;-64
2022/03/09 10:58:39;;;;;;;;;56.40;44.60;;;;;18.46;26.69;99299.31;6274591;27;97388;-65
2022/03/09 11:01:43;;;;;;;;;56.80;44.00;;;;;18.43;26.90;99297.91;6258083;27;97369;-64
2022/03/09 11:05:07;;;;;;;;;57.40;46.00;;;;;18.52;26.57;99288.13;6254535;27;96940;-64
2022/03/09 11:08:11;;;;;;;;;58.00;45.40;;;;;18.71;26.18;99282.28;6238561;27;98834;-66
2022/03/09 11:11:15;;;;;;;;;57.75;45.75;;;;;18.79;26.17;99288.06;6253620;27;97954;-66
2022/03/09 11:14:19;;;;;;;;;58.00;45.00;;;;;18.96;26.23;99296.88;6261712;27;98258;-64
2022/03/09 11:17:23;;;;;;;;;60.00;46.00;;;;;18.98;26.11;99291.16;6262698;27;96697;-64
2022/03/09 11:20:26;;;;;;;;;59.40;46.00;;;;;18.88;26.13;99296.56;6251461;27;97498;-67
2022/03/09 11:23:33;;;;;;;;;62.60;48.00;;;;;18.62;26.34;99292.88;6250363;27;97613;-68
2022/03/09 11:26:41;;;;;;;;;60.00;47.00;;;;;18.22;26.77;99296.13;6261885;27;97456;-67
2022/03/09 11:29:44;;;;;;;;;61.00;47.75;;;;;17.89;27.28;99296.38;6285078;27;97628;-66
2022/03/09 11:32:47;;;;;;;;;61.00;47.00;;;;;17.52;27.92;99293.53;6256148;27;98706;-66
2022/03/09 11:35:50;;;;;;;;;61.60;47.60;;;;;17.16;28.09;99290.41;6243850;27;97191;-66
2022/03/09 11:39:18;;;;;;;;;61.00;47.75;;;;;16.97;28.50;99283.66;6251005;27;96666;-66
2022/03/09 11:42:35;;;;;;;;;62.00;48.00;;;;;16.63;29.10;99279.38;6255984;27;99653;-65
2022/03/09 11:45:39;;;;;;;;;61.75;47.00;;;;;16.53;29.10;99285.47;6252529;27;97240;-65
2022/03/09 11:48:53;;;;;;;;;60.60;48.00;;;;;16.30;29.67;99269.34;6262033;27;96929;-67
2022/03/09 11:52:06;;;;;;;;;59.00;46.00;;;;;16.39;30.16;99286.91;6254384;27;98445;-66
2022/03/09 11:55:18;;;;;;;;;59.75;45.75;;;;;16.26;29.39;99279.94;6263816;27;96662;-65
2022/03/09 11:58:21;;;;;;;;;50.40;39.40;;;;;16.23;28.88;99282.28;6263049;27;96733;-65
2022/03/09 12:01:24;;;;;;;;;24.00;20.60;;;;;16.27;28.31;99283.47;6269638;27;97553;-65
2022/03/09 12:04:51;;;;;;;;;17.00;15.40;;;;;16.47;27.50;99270.97;6281044;27;98164;-66
2022/03/09 12:07:55;;;;;;;;;19.00;17.00;;;;;16.12;27.07;99237.81;6287167;27;97392;-66
2022/03/09 12:10:59;;;;;;;;;16.60;15.40;;;;;16.47;27.44;99267.41;6284142;27;96369;-66
2022/03/09 12:14:03;;;;;;;;;15.40;15.00;;;;;16.57;26.60;99274.91;6262205;27;96843;-66
2022/03/09 12:17:06;;;;;;;;;13.60;12.40;;;;;16.62;25.76;99266.84;6262472;27;96670;-66
2022/03/09 12:20:19;;;;;;;;;13.25;12.25;;;;;16.60;25.67;99258.94;6255063;27;99054;-65
2022/03/09 12:23:22;;;;;;;;;13.40;11.00;;;;;16.62;26.00;99255.94;6226462;27;97934;-65
2022/03/09 12:26:40;;;;;;;;;13.20;12.00;;;;;16.67;25.70;99256.84;6260713;27;97458;-65
2022/03/09 12:29:43;;;;;;;;;11.20;9.40;;;;;16.71;25.64;99252.53;6266671;27;97683;-66
2022/03/09 12:32:51;;;;;;;;;10.00;8.40;;;;;16.67;24.17;99256.03;6259949;27;96916;-66
2022/03/09 12:36:05;;;;;;;;;6.40;6.00;;;;;16.58;24.44;99252.06;6258780;27;97513;-66
2022/03/09 12:39:28;;;;;;;;;8.00;7.00;;;;;16.53;23.82;99246.53;6263134;27;97905;-66
2022/03/09 12:42:35;;;;;;;;;8.00;7.40;;;;;16.66;23.74;99244.34;6227911;27;98248;-66
2022/03/09 12:45:50;;;;;;;;;8.00;6.60;;;;;16.75;23.46;99244.72;6261181;27;96606;-66
2022/03/09 12:49:02;;;;;;;;;7.50;7.00;;;;;16.73;23.45;99244.94;6253797;27;96659;-66
2022/03/09 12:52:10;;;;;;;;;9.00;9.00;;;;;16.62;24.08;99232.28;6263301;27;97525;-65
2022/03/09 12:55:18;;;;;;;;;10.80;10.40;;;;;16.66;23.90;99246.22;6268494;27;97471;-65
2022/03/09 12:58:23;;;;;;;;;11.00;9.75;;;;;16.71;23.97;99241.66;6249426;27;97911;-65
2022/03/09 13:01:26;;;;;;;;;15.20;12.60;;;;;16.64;24.23;99245.66;6269421;27;96852;-66
2022/03/09 13:04:30;;;;;;;;;13.40;12.00;;;;;16.63;24.51;99250.25;6266925;27;96702;-66
2022/03/09 13:07:34;;;;;;;;;12.00;10.00;;;;;16.46;23.48;99257.63;6266279;27;97393;-67
2022/03/09 13:10:43;;;;;;;;;11.20;10.00;;;;;16.60;23.99;99260.84;6256769;27;98008;-65
2022/03/09 13:13:48;;;;;;;;;11.40;10.40;;;;;16.57;23.66;99253.94;6252627;27;96388;-66
2022/03/09 13:17:01;;;;;;;;;10.00;10.00;;;;;16.43;23.89;99250.78;6247304;27;97495;-65
2022/03/09 13:20:06;;;;;;;;;14.00;10.00;;;;;16.45;24.17;99259.53;6269040;27;98615;-65
2022/03/09 13:23:25;;;;;;;;;13.00;11.00;;;;;16.36;24.17;99249.31;6260207;27;96673;-66
2022/03/09 13:26:37;;;;;;;;;10.20;10.00;;;;;16.31;24.36;99241.91;6264020;27;97431;-66
2022/03/09 13:29:44;;;;;;;;;12.75;11.00;;;;;16.29;24.93;99251.38;6261616;27;97515;-64
2022/03/09 13:32:47;;;;;;;;;17.00;15.00;;;;;16.22;24.98;99257.00;6264294;27;97942;-65
2022/03/09 13:35:53;;;;;;;;;20.40;14.00;;;;;16.18;25.03;99263.19;6266181;27;97421;-65
2022/03/09 13:38:58;;;;;;;;;13.50;12.50;;;;;15.94;24.76;99257.09;6252689;27;96941;-65
2022/03/09 13:42:05;;;;;;;;;16.60;14.00;;;;;15.72;24.51;99251.59;6264271;27;97529;-66
2022/03/09 13:45:11;;;;;;;;;12.25;11.25;;;;;15.67;24.50;99250.66;6253973;27;96770;-65
2022/03/09 13:48:22;;;;;;;;;11.40;10.40;;;;;15.57;23.58;99257.56;6258732;27;96783;-66
2022/03/09 13:51:33;;;;;;;;;9.40;9.00;;;;;15.59;23.45;99249.16;6232986;27;97441;-66
2022/03/09 13:54:45;;;;;;;;;10.00;7.20;;;;;15.51;23.81;99244.97;6262812;27;96624;-65
2022/03/09 13:58:02;;;;;;;;;8.80;8.00;;;;;15.43;23.12;99248.06;6244904;27;97006;-65
2022/03/09 14:01:11;;;;;;;;;11.00;9.00;;;;;15.44;23.65;99249.69;6261639;27;96948;-64
2022/03/09 14:04:14;;;;;;;;;8.40;8.00;;;;;15.44;23.72;99244.25;6272979;27;96739;-65
2022/03/09 14:07:18;;;;;;;;;11.00;10.00;;;;;15.39;23.83;99249.63;6233289;27;97526;-65
2022/03/09 14:10:25;;;;;;;;;12.00;9.60;;;;;15.39;23.82;99249.63;6262550;27;97278;-65
2022/03/09 14:13:29;;;;;;;;;9.40;8.40;;;;;15.37;23.53;99248.19;6258097;27;98395;-65
2022/03/09 14:16:35;;;;;;;;;10.00;10.00;;;;;15.28;23.80;99223.31;6262087;27;97497;-65
2022/03/09 14:19:39;;;;;;;;;10.50;9.50;;;;;15.41;23.64;99249.34;6262078;27;97007;-65
2022/03/09 14:22:44;;;;;;;;;11.00;11.00;;;;;15.37;23.56;99250.91;6230253;27;99475;-65
2022/03/09 14:25:48;;;;;;;;;6.33;6.00;;;;;15.35;22.69;99247.59;6250930;27;97397;-65